MEL weather

Melbourne International Airport
Melbourne, Victoria, Australia

Public forecast

Using degrees Celsius for public forecast. Weather courtesy of forecast.io.

Current aviation weather report (METAR) for Melbourne International Airport

Retrieved 2019/11/15 11:30 UTC (11 minutes ago):

YMML 151130Z 25009KT 9999 FEW045 SCT056 BKN065 10/08 Q1017 NOSIG

Aviation forecast (TAF) for Melbourne International Airport

Retrieved 2019/11/15 06:00 UTC (6 hours ago):

TAF YMML 150510Z 1506/1612 26016KT 9999 -SHRA BKN040 FM150700 23012KT 9999 -SHRA BKN040 FM151300 27008KT 9999 NSW FEW030 FM152200 24014KT 9999 SCT050